sensor_id;sensor_type;location;lat;lon;timestamp;temperature;humidity
14006;DHT22;7078;51.542;7.314;2024-02-04T00:01:18;10.40;99.90
14006;DHT22;7078;51.542;7.314;2024-02-04T00:03:44;10.40;99.90
14006;DHT22;7078;51.542;7.314;2024-02-04T00:06:09;10.50;99.90
14006;DHT22;7078;51.542;7.314;2024-02-04T00:08:36;10.40;99.90
14006;DHT22;7078;51.542;7.314;2024-02-04T00:11:01;10.50;99.90
14006;DHT22;7078;51.542;7.314;2024-02-04T00:13:27;10.60;99.90
14006;DHT22;7078;51.542;7.314;2024-02-04T00:15:53;10.40;99.90
14006;DHT22;7078;51.542;7.314;2024-02-04T00:18:19;10.40;99.90
14006;DHT22;7078;51.542;7.314;2024-02-04T00:20:45;10.40;99.90
14006;DHT22;7078;51.542;7.314;2024-02-04T00:23:10;10.40;99.90
14006;DHT22;7078;51.542;7.314;2024-02-04T00:25:36;10.40;99.90
14006;DHT22;7078;51.542;7.314;2024-02-04T00:28:01;10.40;99.90
14006;DHT22;7078;51.542;7.314;2024-02-04T00:30:27;10.30;99.90
14006;DHT22;7078;51.542;7.314;2024-02-04T00:32:52;10.30;99.90
14006;DHT22;7078;51.542;7.314;2024-02-04T00:35:18;10.40;99.90
14006;DHT22;7078;51.542;7.314;2024-02-04T00:37:43;10.40;99.90
14006;DHT22;7078;51.542;7.314;2024-02-04T00:40:10;10.40;99.90
14006;DHT22;7078;51.542;7.314;2024-02-04T00:42:35;10.40;99.90
14006;DHT22;7078;51.542;7.314;2024-02-04T00:45:01;10.30;99.90
14006;DHT22;7078;51.542;7.314;2024-02-04T00:47:26;10.30;99.90
14006;DHT22;7078;51.542;7.314;2024-02-04T00:49:52;10.40;99.90
14006;DHT22;7078;51.542;7.314;2024-02-04T00:52:17;10.40;99.90
14006;DHT22;7078;51.542;7.314;2024-02-04T00:54:42;10.30;99.90
14006;DHT22;7078;51.542;7.314;2024-02-04T00:57:08;10.40;99.90
14006;DHT22;7078;51.542;7.314;2024-02-04T00:59:33;10.40;99.90
14006;DHT22;7078;51.542;7.314;2024-02-04T01:01:59;10.40;99.90
14006;DHT22;7078;51.542;7.314;2024-02-04T01:04:24;10.30;99.90
14006;DHT22;7078;51.542;7.314;2024-02-04T01:06:50;10.30;99.90
14006;DHT22;7078;51.542;7.314;2024-02-04T01:09:15;10.30;99.90
14006;DHT22;7078;51.542;7.314;2024-02-04T01:11:41;10.30;99.90
14006;DHT22;7078;51.542;7.314;2024-02-04T01:14:06;10.20;99.90
14006;DHT22;7078;51.542;7.314;2024-02-04T01:16:32;10.20;99.90
14006;DHT22;7078;51.542;7.314;2024-02-04T01:18:57;10.10;99.90
14006;DHT22;7078;51.542;7.314;2024-02-04T01:21:23;10.10;99.90
14006;DHT22;7078;51.542;7.314;2024-02-04T01:23:48;10.10;99.90
14006;DHT22;7078;51.542;7.314;2024-02-04T01:26:14;10.00;99.90
14006;DHT22;7078;51.542;7.314;2024-02-04T01:28:40;10.00;99.90
14006;DHT22;7078;51.542;7.314;2024-02-04T01:31:06;10.00;99.90
14006;DHT22;7078;51.542;7.314;2024-02-04T01:33:31;10.00;99.90
14006;DHT22;7078;51.542;7.314;2024-02-04T01:35:57;10.00;99.90
14006;DHT22;7078;51.542;7.314;2024-02-04T01:38:23;10.00;99.90
14006;DHT22;7078;51.542;7.314;2024-02-04T01:40:49;10.10;99.90
14006;DHT22;7078;51.542;7.314;2024-02-04T01:43:17;10.00;99.90
14006;DHT22;7078;51.542;7.314;2024-02-04T01:45:43;10.00;99.90
14006;DHT22;7078;51.542;7.314;2024-02-04T01:48:09;10.00;99.90
14006;DHT22;7078;51.542;7.314;2024-02-04T01:50:34;10.00;99.90
14006;DHT22;7078;51.542;7.314;2024-02-04T01:53:00;10.00;99.90
14006;DHT22;7078;51.542;7.314;2024-02-04T01:55:26;9.90;99.90
14006;DHT22;7078;51.542;7.314;2024-02-04T01:57:51;10.00;99.90
14006;DHT22;7078;51.542;7.314;2024-02-04T02:00:17;10.10;99.90
14006;DHT22;7078;51.542;7.314;2024-02-04T02:02:46;10.00;99.90
14006;DHT22;7078;51.542;7.314;2024-02-04T02:05:11;10.00;99.90
14006;DHT22;7078;51.542;7.314;2024-02-04T02:07:37;10.00;99.90
14006;DHT22;7078;51.542;7.314;2024-02-04T02:10:03;10.10;99.90
14006;DHT22;7078;51.542;7.314;2024-02-04T02:12:39;10.00;99.90
14006;DHT22;7078;51.542;7.314;2024-02-04T02:15:13;10.00;99.90
14006;DHT22;7078;51.542;7.314;2024-02-04T02:18:01;10.10;99.90
14006;DHT22;7078;51.542;7.314;2024-02-04T02:23:31;10.10;99.90
14006;DHT22;7078;51.542;7.314;2024-02-04T02:25:59;10.10;99.90
14006;DHT22;7078;51.542;7.314;2024-02-04T02:28:25;10.10;99.90
14006;DHT22;7078;51.542;7.314;2024-02-04T02:30:51;10.20;99.90
14006;DHT22;7078;51.542;7.314;2024-02-04T02:33:17;10.10;99.90
14006;DHT22;7078;51.542;7.314;2024-02-04T02:35:44;10.10;99.90
14006;DHT22;7078;51.542;7.314;2024-02-04T02:40:58;10.10;99.90
14006;DHT22;7078;51.542;7.314;2024-02-04T02:43:24;10.10;99.90
14006;DHT22;7078;51.542;7.314;2024-02-04T02:45:51;10.10;99.90
14006;DHT22;7078;51.542;7.314;2024-02-04T02:48:17;10.10;99.90
14006;DHT22;7078;51.542;7.314;2024-02-04T02:50:43;10.10;99.90
14006;DHT22;7078;51.542;7.314;2024-02-04T02:53:08;10.30;99.90
14006;DHT22;7078;51.542;7.314;2024-02-04T02:55:34;10.10;99.90
14006;DHT22;7078;51.542;7.314;2024-02-04T02:57:59;10.10;99.90
14006;DHT22;7078;51.542;7.314;2024-02-04T03:00:24;10.20;99.90
14006;DHT22;7078;51.542;7.314;2024-02-04T03:02:50;10.20;99.90
14006;DHT22;7078;51.542;7.314;2024-02-04T03:05:16;10.20;99.90
14006;DHT22;7078;51.542;7.314;2024-02-04T03:07:41;10.20;99.90
14006;DHT22;7078;51.542;7.314;2024-02-04T03:10:08;10.30;99.90
14006;DHT22;7078;51.542;7.314;2024-02-04T03:12:34;10.20;99.90
14006;DHT22;7078;51.542;7.314;2024-02-04T03:14:59;10.30;99.90
14006;DHT22;7078;51.542;7.314;2024-02-04T03:17:25;10.30;99.90
14006;DHT22;7078;51.542;7.314;2024-02-04T03:19:50;10.30;99.90
14006;DHT22;7078;51.542;7.314;2024-02-04T03:22:22;10.30;99.90
14006;DHT22;7078;51.542;7.314;2024-02-04T03:24:48;10.30;99.90
14006;DHT22;7078;51.542;7.314;2024-02-04T03:27:13;10.30;99.90
14006;DHT22;7078;51.542;7.314;2024-02-04T03:29:39;10.30;99.90
14006;DHT22;7078;51.542;7.314;2024-02-04T03:32:05;10.30;99.90
14006;DHT22;7078;51.542;7.314;2024-02-04T03:34:30;10.30;99.90
14006;DHT22;7078;51.542;7.314;2024-02-04T03:36:56;10.30;99.90
14006;DHT22;7078;51.542;7.314;2024-02-04T03:39:21;10.30;99.90
14006;DHT22;7078;51.542;7.314;2024-02-04T03:41:47;10.20;99.90
14006;DHT22;7078;51.542;7.314;2024-02-04T03:44:12;10.30;99.90
14006;DHT22;7078;51.542;7.314;2024-02-04T03:46:37;10.20;99.90
14006;DHT22;7078;51.542;7.314;2024-02-04T03:49:06;10.30;99.90
14006;DHT22;7078;51.542;7.314;2024-02-04T03:51:32;10.20;99.90
14006;DHT22;7078;51.542;7.314;2024-02-04T03:53:58;10.30;99.90
14006;DHT22;7078;51.542;7.314;2024-02-04T03:56:23;10.30;99.90
14006;DHT22;7078;51.542;7.314;2024-02-04T03:58:49;10.20;99.90
14006;DHT22;7078;51.542;7.314;2024-02-04T04:01:15;10.30;99.90
14006;DHT22;7078;51.542;7.314;2024-02-04T04:03:42;10.30;99.90
14006;DHT22;7078;51.542;7.314;2024-02-04T04:06:11;10.30;99.90
14006;DHT22;7078;51.542;7.314;2024-02-04T04:08:37;10.30;99.90
14006;DHT22;7078;51.542;7.314;2024-02-04T04:11:03;10.30;99.90
14006;DHT22;7078;51.542;7.314;2024-02-04T04:13:29;10.40;99.90
14006;DHT22;7078;51.542;7.314;2024-02-04T04:15:55;10.40;99.90
14006;DHT22;7078;51.542;7.314;2024-02-04T04:18:20;10.30;99.90
14006;DHT22;7078;51.542;7.314;2024-02-04T04:20:46;10.30;99.90
14006;DHT22;7078;51.542;7.314;2024-02-04T04:23:12;10.30;99.90
14006;DHT22;7078;51.542;7.314;2024-02-04T04:25:38;10.30;99.90
14006;DHT22;7078;51.542;7.314;2024-02-04T04:28:03;10.40;99.90
14006;DHT22;7078;51.542;7.314;2024-02-04T04:30:29;10.30;99.90
14006;DHT22;7078;51.542;7.314;2024-02-04T04:32:56;10.30;99.90
14006;DHT22;7078;51.542;7.314;2024-02-04T04:35:21;10.30;99.90
14006;DHT22;7078;51.542;7.314;2024-02-04T04:37:47;10.30;99.90
14006;DHT22;7078;51.542;7.314;2024-02-04T04:40:12;10.30;99.90
14006;DHT22;7078;51.542;7.314;2024-02-04T04:42:38;10.30;99.90
14006;DHT22;7078;51.542;7.314;2024-02-04T04:45:04;10.30;99.90
14006;DHT22;7078;51.542;7.314;2024-02-04T04:47:29;10.30;99.90
14006;DHT22;7078;51.542;7.314;2024-02-04T04:49:55;10.40;99.90
14006;DHT22;7078;51.542;7.314;2024-02-04T04:52:20;10.30;99.90
14006;DHT22;7078;51.542;7.314;2024-02-04T04:54:46;10.30;99.90
14006;DHT22;7078;51.542;7.314;2024-02-04T04:57:11;10.30;99.90
14006;DHT22;7078;51.542;7.314;2024-02-04T04:59:37;10.30;99.90
14006;DHT22;7078;51.542;7.314;2024-02-04T05:02:03;10.30;99.90
14006;DHT22;7078;51.542;7.314;2024-02-04T05:04:29;10.30;99.90
14006;DHT22;7078;51.542;7.314;2024-02-04T05:06:55;10.20;99.90
14006;DHT22;7078;51.542;7.314;2024-02-04T05:09:21;10.30;99.90
14006;DHT22;7078;51.542;7.314;2024-02-04T05:11:46;10.30;99.90
14006;DHT22;7078;51.542;7.314;2024-02-04T05:14:11;10.30;99.90
14006;DHT22;7078;51.542;7.314;2024-02-04T05:16:37;10.30;99.90
14006;DHT22;7078;51.542;7.314;2024-02-04T05:19:03;10.30;99.90
14006;DHT22;7078;51.542;7.314;2024-02-04T05:21:28;10.30;99.90
14006;DHT22;7078;51.542;7.314;2024-02-04T05:23:54;10.40;99.90
14006;DHT22;7078;51.542;7.314;2024-02-04T05:26:20;10.30;99.90
14006;DHT22;7078;51.542;7.314;2024-02-04T05:28:45;10.40;99.90
14006;DHT22;7078;51.542;7.314;2024-02-04T05:31:11;10.40;99.90
14006;DHT22;7078;51.542;7.314;2024-02-04T05:33:36;10.30;99.90
14006;DHT22;7078;51.542;7.314;2024-02-04T05:36:02;10.40;99.90
14006;DHT22;7078;51.542;7.314;2024-02-04T05:38:28;10.40;99.90
14006;DHT22;7078;51.542;7.314;2024-02-04T05:40:54;10.40;99.90
14006;DHT22;7078;51.542;7.314;2024-02-04T05:43:19;10.40;99.90
14006;DHT22;7078;51.542;7.314;2024-02-04T05:45:45;10.40;99.90
14006;DHT22;7078;51.542;7.314;2024-02-04T05:48:10;10.40;99.90
14006;DHT22;7078;51.542;7.314;2024-02-04T05:50:36;10.40;99.90
14006;DHT22;7078;51.542;7.314;2024-02-04T05:53:02;10.40;99.90
14006;DHT22;7078;51.542;7.314;2024-02-04T05:55:28;10.40;99.90
14006;DHT22;7078;51.542;7.314;2024-02-04T05:57:54;10.30;99.90
14006;DHT22;7078;51.542;7.314;2024-02-04T06:00:19;10.30;99.90
14006;DHT22;7078;51.542;7.314;2024-02-04T06:02:45;10.40;99.90
14006;DHT22;7078;51.542;7.314;2024-02-04T06:05:11;10.40;99.90
14006;DHT22;7078;51.542;7.314;2024-02-04T06:07:37;10.40;99.90
14006;DHT22;7078;51.542;7.314;2024-02-04T06:10:02;10.40;99.90
14006;DHT22;7078;51.542;7.314;2024-02-04T06:12:31;10.30;99.90
14006;DHT22;7078;51.542;7.314;2024-02-04T06:14:56;10.40;99.90
14006;DHT22;7078;51.542;7.314;2024-02-04T06:17:22;10.40;99.90
14006;DHT22;7078;51.542;7.314;2024-02-04T06:19:47;10.30;99.90
14006;DHT22;7078;51.542;7.314;2024-02-04T06:22:14;10.30;99.90
14006;DHT22;7078;51.542;7.314;2024-02-04T06:24:40;10.30;99.90
14006;DHT22;7078;51.542;7.314;2024-02-04T06:27:07;10.30;99.90
14006;DHT22;7078;51.542;7.314;2024-02-04T06:29:33;10.30;99.90
14006;DHT22;7078;51.542;7.314;2024-02-04T06:31:58;10.20;99.90
14006;DHT22;7078;51.542;7.314;2024-02-04T06:34:24;10.20;99.90
14006;DHT22;7078;51.542;7.314;2024-02-04T06:36:50;10.20;99.90
14006;DHT22;7078;51.542;7.314;2024-02-04T06:39:15;10.20;99.90
14006;DHT22;7078;51.542;7.314;2024-02-04T06:41:41;10.20;99.90
14006;DHT22;7078;51.542;7.314;2024-02-04T06:44:07;10.20;99.90
14006;DHT22;7078;51.542;7.314;2024-02-04T06:46:32;10.20;99.90
14006;DHT22;7078;51.542;7.314;2024-02-04T06:48:58;10.20;99.90
14006;DHT22;7078;51.542;7.314;2024-02-04T06:51:23;10.20;99.90
14006;DHT22;7078;51.542;7.314;2024-02-04T06:53:49;10.20;99.90
14006;DHT22;7078;51.542;7.314;2024-02-04T06:56:14;10.20;99.90
14006;DHT22;7078;51.542;7.314;2024-02-04T06:58:40;10.20;99.90
14006;DHT22;7078;51.542;7.314;2024-02-04T07:01:06;10.10;99.90
14006;DHT22;7078;51.542;7.314;2024-02-04T07:03:32;10.10;99.90
14006;DHT22;7078;51.542;7.314;2024-02-04T07:05:58;10.10;99.90
14006;DHT22;7078;51.542;7.314;2024-02-04T07:08:24;10.20;99.90
14006;DHT22;7078;51.542;7.314;2024-02-04T07:10:50;10.10;99.90
14006;DHT22;7078;51.542;7.314;2024-02-04T07:13:15;10.20;99.90
14006;DHT22;7078;51.542;7.314;2024-02-04T07:15:41;10.20;99.90
14006;DHT22;7078;51.542;7.314;2024-02-04T07:18:06;10.20;99.90
14006;DHT22;7078;51.542;7.314;2024-02-04T07:20:33;10.20;99.90
14006;DHT22;7078;51.542;7.314;2024-02-04T07:22:58;10.20;99.90
14006;DHT22;7078;51.542;7.314;2024-02-04T07:25:23;10.30;99.90
14006;DHT22;7078;51.542;7.314;2024-02-04T07:27:49;10.40;99.90
14006;DHT22;7078;51.542;7.314;2024-02-04T07:30:15;10.40;99.90
14006;DHT22;7078;51.542;7.314;2024-02-04T07:32:40;10.40;99.90
14006;DHT22;7078;51.542;7.314;2024-02-04T07:35:06;10.40;99.90
14006;DHT22;7078;51.542;7.314;2024-02-04T07:37:34;10.40;99.90
14006;DHT22;7078;51.542;7.314;2024-02-04T07:40:00;10.50;99.90
14006;DHT22;7078;51.542;7.314;2024-02-04T07:42:26;10.50;99.90
14006;DHT22;7078;51.542;7.314;2024-02-04T07:44:52;10.50;99.90
14006;DHT22;7078;51.542;7.314;2024-02-04T07:47:17;10.50;99.90
14006;DHT22;7078;51.542;7.314;2024-02-04T07:49:44;10.60;99.90
14006;DHT22;7078;51.542;7.314;2024-02-04T07:52:10;10.50;99.90
14006;DHT22;7078;51.542;7.314;2024-02-04T07:54:35;10.50;99.90
14006;DHT22;7078;51.542;7.314;2024-02-04T07:57:01;10.50;99.90
14006;DHT22;7078;51.542;7.314;2024-02-04T07:59:26;10.50;99.90
14006;DHT22;7078;51.542;7.314;2024-02-04T08:01:52;10.40;99.90
14006;DHT22;7078;51.542;7.314;2024-02-04T08:04:17;10.40;99.90
14006;DHT22;7078;51.542;7.314;2024-02-04T08:06:43;10.40;99.90
14006;DHT22;7078;51.542;7.314;2024-02-04T08:09:08;10.50;99.90
14006;DHT22;7078;51.542;7.314;2024-02-04T08:11:34;10.40;99.90
14006;DHT22;7078;51.542;7.314;2024-02-04T08:13:59;10.50;99.90
14006;DHT22;7078;51.542;7.314;2024-02-04T08:16:25;10.40;99.90
14006;DHT22;7078;51.542;7.314;2024-02-04T08:18:51;10.50;99.90
14006;DHT22;7078;51.542;7.314;2024-02-04T08:21:16;10.40;99.90
14006;DHT22;7078;51.542;7.314;2024-02-04T08:23:43;10.40;99.90
14006;DHT22;7078;51.542;7.314;2024-02-04T08:26:10;10.40;99.90
14006;DHT22;7078;51.542;7.314;2024-02-04T08:28:35;10.40;99.90
14006;DHT22;7078;51.542;7.314;2024-02-04T08:31:01;10.40;99.90
14006;DHT22;7078;51.542;7.314;2024-02-04T08:33:27;10.40;99.90
14006;DHT22;7078;51.542;7.314;2024-02-04T08:35:52;10.50;99.90
14006;DHT22;7078;51.542;7.314;2024-02-04T08:38:17;10.50;99.90
14006;DHT22;7078;51.542;7.314;2024-02-04T08:40:43;10.50;99.90
14006;DHT22;7078;51.542;7.314;2024-02-04T08:43:10;10.60;99.90
14006;DHT22;7078;51.542;7.314;2024-02-04T08:45:35;10.60;99.90
14006;DHT22;7078;51.542;7.314;2024-02-04T08:48:01;10.60;99.90
14006;DHT22;7078;51.542;7.314;2024-02-04T08:50:27;10.60;99.90
14006;DHT22;7078;51.542;7.314;2024-02-04T08:52:52;10.60;99.90
14006;DHT22;7078;51.542;7.314;2024-02-04T08:55:18;10.70;99.90
14006;DHT22;7078;51.542;7.314;2024-02-04T08:57:44;10.70;99.90
14006;DHT22;7078;51.542;7.314;2024-02-04T09:00:10;10.70;99.90
14006;DHT22;7078;51.542;7.314;2024-02-04T09:02:37;10.70;99.90
14006;DHT22;7078;51.542;7.314;2024-02-04T09:05:03;10.80;99.90
14006;DHT22;7078;51.542;7.314;2024-02-04T09:07:30;10.80;99.90
14006;DHT22;7078;51.542;7.314;2024-02-04T09:09:56;10.80;99.90
14006;DHT22;7078;51.542;7.314;2024-02-04T09:12:22;10.80;99.90
14006;DHT22;7078;51.542;7.314;2024-02-04T09:14:48;10.80;99.90
14006;DHT22;7078;51.542;7.314;2024-02-04T09:17:13;10.80;99.90
14006;DHT22;7078;51.542;7.314;2024-02-04T09:19:39;10.70;99.90
14006;DHT22;7078;51.542;7.314;2024-02-04T09:22:05;10.70;99.90
14006;DHT22;7078;51.542;7.314;2024-02-04T09:24:30;10.70;99.90
14006;DHT22;7078;51.542;7.314;2024-02-04T09:26:56;10.70;99.90
14006;DHT22;7078;51.542;7.314;2024-02-04T09:29:21;10.60;99.90
14006;DHT22;7078;51.542;7.314;2024-02-04T09:31:47;10.60;99.90
14006;DHT22;7078;51.542;7.314;2024-02-04T09:34:15;10.60;99.90
14006;DHT22;7078;51.542;7.314;2024-02-04T09:36:40;10.50;99.90
14006;DHT22;7078;51.542;7.314;2024-02-04T09:39:06;10.40;99.90
14006;DHT22;7078;51.542;7.314;2024-02-04T09:41:31;10.30;99.90
14006;DHT22;7078;51.542;7.314;2024-02-04T09:43:58;10.20;99.90
14006;DHT22;7078;51.542;7.314;2024-02-04T09:46:25;10.20;99.90
14006;DHT22;7078;51.542;7.314;2024-02-04T09:48:51;10.10;99.90
14006;DHT22;7078;51.542;7.314;2024-02-04T09:51:18;10.10;99.90
14006;DHT22;7078;51.542;7.314;2024-02-04T09:53:44;10.00;99.90
14006;DHT22;7078;51.542;7.314;2024-02-04T09:56:11;10.00;99.90
14006;DHT22;7078;51.542;7.314;2024-02-04T09:58:37;10.00;99.90
14006;DHT22;7078;51.542;7.314;2024-02-04T10:01:07;9.90;99.90
14006;DHT22;7078;51.542;7.314;2024-02-04T10:03:35;9.90;99.90
14006;DHT22;7078;51.542;7.314;2024-02-04T10:06:01;9.80;99.90
14006;DHT22;7078;51.542;7.314;2024-02-04T10:08:26;9.70;99.90
14006;DHT22;7078;51.542;7.314;2024-02-04T10:10:52;9.70;99.90
14006;DHT22;7078;51.542;7.314;2024-02-04T10:13:19;9.60;99.90
14006;DHT22;7078;51.542;7.314;2024-02-04T10:15:44;9.60;99.90
14006;DHT22;7078;51.542;7.314;2024-02-04T10:18:10;9.60;99.90
14006;DHT22;7078;51.542;7.314;2024-02-04T10:20:36;9.50;99.90
14006;DHT22;7078;51.542;7.314;2024-02-04T10:23:02;9.50;99.90
14006;DHT22;7078;51.542;7.314;2024-02-04T10:25:28;9.60;99.90
14006;DHT22;7078;51.542;7.314;2024-02-04T10:27:54;9.50;99.90
14006;DHT22;7078;51.542;7.314;2024-02-04T10:30:20;9.60;99.90
14006;DHT22;7078;51.542;7.314;2024-02-04T10:32:52;9.60;99.90
14006;DHT22;7078;51.542;7.314;2024-02-04T10:35:20;9.70;99.90
14006;DHT22;7078;51.542;7.314;2024-02-04T10:37:51;9.80;99.90
14006;DHT22;7078;51.542;7.314;2024-02-04T10:40:17;9.90;99.90
14006;DHT22;7078;51.542;7.314;2024-02-04T10:42:43;9.90;99.90
14006;DHT22;7078;51.542;7.314;2024-02-04T10:45:10;10.00;99.90
14006;DHT22;7078;51.542;7.314;2024-02-04T10:47:37;10.10;99.90
14006;DHT22;7078;51.542;7.314;2024-02-04T10:50:04;10.20;99.90
14006;DHT22;7078;51.542;7.314;2024-02-04T10:52:36;10.30;99.90
14006;DHT22;7078;51.542;7.314;2024-02-04T10:55:07;10.30;99.90
14006;DHT22;7078;51.542;7.314;2024-02-04T10:57:34;10.30;99.90
14006;DHT22;7078;51.542;7.314;2024-02-04T11:00:01;10.40;99.90
14006;DHT22;7078;51.542;7.314;2024-02-04T11:02:31;10.60;99.90
14006;DHT22;7078;51.542;7.314;2024-02-04T11:04:59;10.70;99.90
14006;DHT22;7078;51.542;7.314;2024-02-04T11:07:29;10.80;99.90
14006;DHT22;7078;51.542;7.314;2024-02-04T11:09:57;11.00;99.90
14006;DHT22;7078;51.542;7.314;2024-02-04T11:12:24;11.10;99.90
14006;DHT22;7078;51.542;7.314;2024-02-04T11:14:52;11.20;99.90
14006;DHT22;7078;51.542;7.314;2024-02-04T11:17:42;11.30;99.90
14006;DHT22;7078;51.542;7.314;2024-02-04T11:23:23;11.40;99.90
14006;DHT22;7078;51.542;7.314;2024-02-04T11:25:55;11.40;99.90
14006;DHT22;7078;51.542;7.314;2024-02-04T11:28:22;11.40;99.90
14006;DHT22;7078;51.542;7.314;2024-02-04T11:30:48;11.30;99.90
14006;DHT22;7078;51.542;7.314;2024-02-04T11:33:18;11.20;99.90
14006;DHT22;7078;51.542;7.314;2024-02-04T11:35:44;11.20;99.90
14006;DHT22;7078;51.542;7.314;2024-02-04T11:38:10;11.30;99.90
14006;DHT22;7078;51.542;7.314;2024-02-04T11:40:37;11.20;99.90
14006;DHT22;7078;51.542;7.314;2024-02-04T11:43:12;11.20;99.90
14006;DHT22;7078;51.542;7.314;2024-02-04T11:45:40;11.20;99.90
14006;DHT22;7078;51.542;7.314;2024-02-04T11:48:10;11.30;99.90
14006;DHT22;7078;51.542;7.314;2024-02-04T11:50:37;11.30;99.90
14006;DHT22;7078;51.542;7.314;2024-02-04T11:53:07;11.30;99.90
14006;DHT22;7078;51.542;7.314;2024-02-04T11:55:34;11.30;99.90
14006;DHT22;7078;51.542;7.314;2024-02-04T11:58:01;11.20;99.90
14006;DHT22;7078;51.542;7.314;2024-02-04T12:00:27;11.20;99.90
14006;DHT22;7078;51.542;7.314;2024-02-04T12:03:03;11.10;99.90
14006;DHT22;7078;51.542;7.314;2024-02-04T12:05:36;11.00;99.90
14006;DHT22;7078;51.542;7.314;2024-02-04T12:08:03;11.00;99.90
14006;DHT22;7078;51.542;7.314;2024-02-04T12:10:30;10.90;99.90
14006;DHT22;7078;51.542;7.314;2024-02-04T12:12:58;11.00;99.90
14006;DHT22;7078;51.542;7.314;2024-02-04T12:15:25;10.90;99.90
14006;DHT22;7078;51.542;7.314;2024-02-04T12:17:50;10.90;99.90
14006;DHT22;7078;51.542;7.314;2024-02-04T12:20:16;10.90;99.90
14006;DHT22;7078;51.542;7.314;2024-02-04T12:22:42;10.90;99.90
14006;DHT22;7078;51.542;7.314;2024-02-04T12:25:08;10.90;99.90
14006;DHT22;7078;51.542;7.314;2024-02-04T12:27:34;10.80;99.90
14006;DHT22;7078;51.542;7.314;2024-02-04T12:30:00;10.80;99.90
14006;DHT22;7078;51.542;7.314;2024-02-04T12:32:26;10.70;99.90
14006;DHT22;7078;51.542;7.314;2024-02-04T12:34:52;10.70;99.90
14006;DHT22;7078;51.542;7.314;2024-02-04T12:37:19;10.70;99.90
14006;DHT22;7078;51.542;7.314;2024-02-04T12:39:45;10.70;99.90
14006;DHT22;7078;51.542;7.314;2024-02-04T12:42:15;10.70;99.90
14006;DHT22;7078;51.542;7.314;2024-02-04T12:44:44;10.70;99.90
14006;DHT22;7078;51.542;7.314;2024-02-04T12:47:10;10.80;99.90
14006;DHT22;7078;51.542;7.314;2024-02-04T12:49:35;10.80;99.90
14006;DHT22;7078;51.542;7.314;2024-02-04T12:52:05;10.80;99.90
14006;DHT22;7078;51.542;7.314;2024-02-04T12:54:39;10.80;99.90
14006;DHT22;7078;51.542;7.314;2024-02-04T12:57:05;10.80;99.90
14006;DHT22;7078;51.542;7.314;2024-02-04T12:59:31;10.80;99.90
14006;DHT22;7078;51.542;7.314;2024-02-04T13:01:59;10.80;99.90
14006;DHT22;7078;51.542;7.314;2024-02-04T13:04:26;10.80;99.90
14006;DHT22;7078;51.542;7.314;2024-02-04T13:06:51;10.80;99.90
14006;DHT22;7078;51.542;7.314;2024-02-04T13:09:18;10.80;99.90
14006;DHT22;7078;51.542;7.314;2024-02-04T13:11:44;10.80;99.90
14006;DHT22;7078;51.542;7.314;2024-02-04T13:14:10;10.80;99.90
14006;DHT22;7078;51.542;7.314;2024-02-04T13:16:37;10.90;99.90
14006;DHT22;7078;51.542;7.314;2024-02-04T13:19:03;10.90;99.90
14006;DHT22;7078;51.542;7.314;2024-02-04T13:21:29;10.90;99.90
14006;DHT22;7078;51.542;7.314;2024-02-04T13:23:54;10.90;99.90
14006;DHT22;7078;51.542;7.314;2024-02-04T13:26:20;10.90;99.90
14006;DHT22;7078;51.542;7.314;2024-02-04T13:28:46;10.90;99.90
14006;DHT22;7078;51.542;7.314;2024-02-04T13:31:12;10.90;99.90
14006;DHT22;7078;51.542;7.314;2024-02-04T13:33:41;10.90;99.90
14006;DHT22;7078;51.542;7.314;2024-02-04T13:36:10;10.90;99.90
14006;DHT22;7078;51.542;7.314;2024-02-04T13:38:36;10.90;99.90
14006;DHT22;7078;51.542;7.314;2024-02-04T13:41:05;10.90;99.90
14006;DHT22;7078;51.542;7.314;2024-02-04T13:43:32;10.80;99.90
14006;DHT22;7078;51.542;7.314;2024-02-04T13:45:59;10.90;99.90
14006;DHT22;7078;51.542;7.314;2024-02-04T13:48:25;10.90;99.90
14006;DHT22;7078;51.542;7.314;2024-02-04T13:50:51;10.80;99.90
14006;DHT22;7078;51.542;7.314;2024-02-04T13:53:17;10.80;99.90
14006;DHT22;7078;51.542;7.314;2024-02-04T13:55:42;10.80;99.90
14006;DHT22;7078;51.542;7.314;2024-02-04T13:58:09;10.80;99.90
14006;DHT22;7078;51.542;7.314;2024-02-04T14:00:35;10.80;99.90
14006;DHT22;7078;51.542;7.314;2024-02-04T14:03:00;10.80;99.90
14006;DHT22;7078;51.542;7.314;2024-02-04T14:05:26;10.80;99.90
14006;DHT22;7078;51.542;7.314;2024-02-04T14:07:51;10.80;99.90
14006;DHT22;7078;51.542;7.314;2024-02-04T14:10:17;10.80;99.90
14006;DHT22;7078;51.542;7.314;2024-02-04T14:12:43;10.80;99.90
14006;DHT22;7078;51.542;7.314;2024-02-04T14:15:11;10.80;99.90
14006;DHT22;7078;51.542;7.314;2024-02-04T14:17:36;10.80;99.90
14006;DHT22;7078;51.542;7.314;2024-02-04T14:20:02;10.80;99.90
14006;DHT22;7078;51.542;7.314;2024-02-04T14:22:30;10.80;99.90
14006;DHT22;7078;51.542;7.314;2024-02-04T14:24:56;10.80;99.90
14006;DHT22;7078;51.542;7.314;2024-02-04T14:27:22;10.80;99.90
14006;DHT22;7078;51.542;7.314;2024-02-04T14:29:48;10.80;99.90
14006;DHT22;7078;51.542;7.314;2024-02-04T14:32:13;10.80;99.90
14006;DHT22;7078;51.542;7.314;2024-02-04T14:34:39;10.90;99.90
14006;DHT22;7078;51.542;7.314;2024-02-04T14:37:04;10.80;99.90
14006;DHT22;7078;51.542;7.314;2024-02-04T14:39:30;10.80;99.90
14006;DHT22;7078;51.542;7.314;2024-02-04T14:41:58;10.80;99.90
14006;DHT22;7078;51.542;7.314;2024-02-04T14:44:24;10.80;99.90
14006;DHT22;7078;51.542;7.314;2024-02-04T14:46:50;10.80;99.90
14006;DHT22;7078;51.542;7.314;2024-02-04T14:49:15;10.80;99.90
14006;DHT22;7078;51.542;7.314;2024-02-04T14:51:41;10.80;99.90
14006;DHT22;7078;51.542;7.314;2024-02-04T14:54:07;10.80;99.90
14006;DHT22;7078;51.542;7.314;2024-02-04T14:56:39;10.80;99.90
14006;DHT22;7078;51.542;7.314;2024-02-04T14:59:06;10.80;99.90
14006;DHT22;7078;51.542;7.314;2024-02-04T15:01:33;10.80;99.90
14006;DHT22;7078;51.542;7.314;2024-02-04T15:03:58;10.80;99.90
14006;DHT22;7078;51.542;7.314;2024-02-04T15:06:23;10.80;99.90
14006;DHT22;7078;51.542;7.314;2024-02-04T15:08:49;10.80;99.90
14006;DHT22;7078;51.542;7.314;2024-02-04T15:11:15;10.80;99.90
14006;DHT22;7078;51.542;7.314;2024-02-04T15:13:40;10.80;99.90
14006;DHT22;7078;51.542;7.314;2024-02-04T15:16:06;10.80;99.90
14006;DHT22;7078;51.542;7.314;2024-02-04T15:18:32;10.80;99.90
14006;DHT22;7078;51.542;7.314;2024-02-04T15:20:58;10.80;99.90
14006;DHT22;7078;51.542;7.314;2024-02-04T15:23:24;10.80;99.90
14006;DHT22;7078;51.542;7.314;2024-02-04T15:25:51;10.80;99.90
14006;DHT22;7078;51.542;7.314;2024-02-04T15:28:18;10.80;99.90
14006;DHT22;7078;51.542;7.314;2024-02-04T15:30:44;10.80;99.90
14006;DHT22;7078;51.542;7.314;2024-02-04T15:33:11;10.80;99.90
14006;DHT22;7078;51.542;7.314;2024-02-04T15:35:37;10.80;99.90
14006;DHT22;7078;51.542;7.314;2024-02-04T15:38:02;10.70;99.90
14006;DHT22;7078;51.542;7.314;2024-02-04T15:40:28;10.70;99.90
14006;DHT22;7078;51.542;7.314;2024-02-04T15:42:54;10.70;99.90
14006;DHT22;7078;51.542;7.314;2024-02-04T15:45:20;10.70;99.90
14006;DHT22;7078;51.542;7.314;2024-02-04T15:47:49;10.70;99.90
14006;DHT22;7078;51.542;7.314;2024-02-04T15:50:19;10.70;99.90